Latest Weather Observations for Camden

IDN60801

Issued at 10:32 am EDT Friday 24 March 2017 (issued every 30 minutes, with the page automatically refreshed every 10 minutes)

About weather observations | Map of weather stations | Latest weather observations for NSW | Other Formats
Station Details ID: 068192 Name: CAMDEN AIRPORT AWS Lat: -34.04 Lon: 150.69 Height: 73.9 m
Data from the previous 72 hours. | See also: Recent months at Camden
Date/Time
EDT
Temp
°C
App
Temp
°C
Dew
Point
°C
Rel
Hum
%
Delta-T
°C
Wind Press
QNH
hPa
Press
MSL
hPa
Rain since
9am
mm
Dir  Spd
km/h
Gust
km/h
Spd
kts
Gust
kts
24/10:30am 22.0 21.8 15.8 68 3.7 SSW 11 15 6 8 1020.9 1020.6 0.0
24/10:00am 21.6 20.6 15.7 69 3.5 S 15 24 8 13 1020.8 1020.5 0.0
24/09:30am 21.2 20.2 15.5 70 3.4 S 15 19 8 10 1020.7 1020.4 0.0
24/09:00am 20.5 20.1 15.3 72 3.1 SW 11 15 6 8 1020.6 1020.3 5.8
24/08:30am 19.5 19.7 15.8 79 2.2 SW 9 11 5 6 1020.4 1020.1 5.8
24/08:00am 18.8 20.0 15.9 83 1.7 SW 4 11 2 6 1020.2 1019.9 5.8
24/07:30am 18.1 20.3 16.4 90 1.0 CALM 0 0 0 0 1020.0 1019.7 5.8
24/07:00am 18.0 19.7 16.3 90 1.0 SW 2 7 1 4 1020.0 1019.7 5.8
24/06:30am 17.9 18.6 16.2 90 1.0 SW 7 9 4 5 1019.8 1019.5 5.8
24/06:00am 18.1 19.1 16.4 90 1.0 SW 6 9 3 5 1019.6 1019.3 5.8
24/05:30am 18.0 18.6 16.7 92 0.8 SSW 9 13 5 7 1019.4 1019.1 5.8
24/05:00am 18.0 19.1 16.5 91 0.9 SW 6 9 3 5 1019.0 1018.7 5.8
24/04:30am 17.8 18.7 16.7 93 0.7 SW 7 11 4 6 1019.0 1018.7 5.8
24/04:00am 17.9 19.0 17.1 95 0.5 SW 7 11 4 6 1018.9 1018.6 5.8
24/03:30am 17.8 18.9 17.2 96 0.4 SW 7 9 4 5 1019.0 1018.7 5.8
24/03:00am 17.7 18.0 16.9 95 0.5 SSW 11 17 6 9 1019.1 1018.8 5.6
24/02:35am 18.0 19.9 16.7 92 0.8 WSW 2 7 1 4 1019.2 1018.9 5.4
24/02:30am 18.0 20.3 16.7 92 0.8 CALM 0 0 0 0 1019.2 1018.9 5.4
24/02:00am 18.0 19.5 16.7 92 0.8 WSW 4 6 2 3 1019.5 1019.2 5.4
24/01:48am 18.0 19.1 16.5 91 0.9 SW 6 9 3 5 1019.4 1019.1 5.4
24/01:39am 18.0 19.1 16.7 92 0.8 SW 6 7 3 4 1019.4 1019.1 5.4
24/01:30am 17.9 19.0 16.6 92 0.8 SW 6 7 3 4 1019.3 1019.0 5.4
24/01:00am 17.9 20.3 17.1 95 0.5 CALM 0 0 0 0 1019.5 1019.2 5.4
24/12:51am 17.9 20.4 17.3 96 0.4 CALM 0 0 0 0 1019.7 1019.4 5.4
24/12:30am 17.9 18.9 16.8 93 0.7 SSW 7 11 4 6 1019.5 1019.2 5.4
24/12:00am 18.1 17.3 16.1 88 1.2 SSW 15 22 8 12 1019.5 1019.2 5.4
 
Date/Time
EDT
Temp
°C
App
Temp
°C
Dew
Point
°C
Rel
Hum
%
Delta-T
°C
Wind Press
QNH
hPa
Press
MSL
hPa
Rain since
9am
mm
Dir  Spd
km/h
Gust
km/h
Spd
kts
Gust
kts
23/11:30pm 18.5 18.3 16.7 89 1.1 SSW 13 15 7 8 1019.5 1019.2 5.4
23/11:00pm 18.7 19.5 17.4 92 0.8 WSW 9 11 5 6 1019.5 1019.2 5.4
23/10:30pm 18.9 21.4 18.1 95 0.5 SW 2 7 1 4 1019.4 1019.1 5.4
23/10:00pm 19.2 22.5 19.0 99 0.1 CALM 0 0 0 0 1019.5 1019.2 5.2
23/09:47pm 19.1 22.3 18.9 99 0.1 CALM 0 0 0 0 1019.5 1019.2 5.2
23/09:30pm 19.2 22.4 18.9 98 0.2 CALM 0 0 0 0 1019.4 1019.1 5.2
23/09:28pm 19.2 22.4 18.9 98 0.2 CALM 0 0 0 0 1019.4 1019.1 5.2
23/09:00pm 19.2 22.4 18.9 98 0.2 CALM 0 0 0 0 1019.0 1018.7 5.0
23/08:30pm 19.3 21.8 19.0 98 0.2 W 4 7 2 4 1019.0 1018.7 4.8
23/08:00pm 19.3 22.4 18.6 96 0.4 CALM 0 0 0 0 1018.3 1018.0 4.4
23/07:30pm 19.3 22.2 18.3 94 0.6 CALM 0 0 0 0 1017.8 1017.5 4.4
23/07:00pm 19.3 21.9 18.3 94 0.6 S 2 7 1 4 1017.7 1017.4 4.4
23/06:30pm 19.4 22.6 18.9 97 0.3 CALM 0 0 0 0 1017.7 1017.4 4.4
23/06:25pm 19.5 22.4 19.0 97 0.3 WSW 2 7 1 4 1017.6 1017.3 4.4
23/06:00pm 19.4 21.8 18.9 97 0.3 W 4 11 2 6 1017.9 1017.6 4.4
23/05:44pm 19.5 22.4 19.0 97 0.3 WNW 2 6 1 3 1017.7 1017.4 4.2
23/05:30pm 19.4 22.2 18.9 97 0.3 NNW 2 7 1 4 1017.7 1017.4 4.2
23/05:00pm 19.5 21.3 18.8 96 0.4 WSW 7 9 4 5 1018.0 1017.7 3.0
23/04:40pm 19.6 21.1 18.8 95 0.5 W 9 11 5 6 1017.9 1017.6 2.0
23/04:30pm 19.7 21.4 18.5 93 0.7 WSW 7 9 4 5 1017.9 1017.6 1.6
23/04:00pm 20.1 21.5 17.9 87 1.4 SSW 7 11 4 6 1017.8 1017.5 0.4
23/03:57pm 20.0 20.8 17.4 85 1.6 SSW 9 15 5 8 1017.8 1017.5 0.4
23/03:30pm 20.7 21.7 17.7 83 1.9 S 9 11 5 6 1017.7 1017.4 0.2
23/03:00pm 21.1 22.5 17.9 82 2.0 SSW 7 11 4 6 1017.9 1017.6 0.2
23/02:30pm 21.4 22.5 17.2 77 2.6 WSW 7 9 4 5 1018.0 1017.7 0.0
23/02:00pm 21.9 22.5 16.8 73 3.1 SW 9 13 5 7 1018.4 1018.1 0.0
23/01:30pm 22.2 23.1 16.5 70 3.5 WSW 7 11 4 6 1018.6 1018.3 0.0
23/01:00pm 21.8 22.6 16.3 71 3.3 W 7 9 4 5 1019.1 1018.8 0.0
23/12:30pm 21.8 22.5 16.1 70 3.4 W 7 9 4 5 1019.3 1019.0 0.0
23/12:00pm 21.8 22.6 15.9 69 3.5 WSW 6 9 3 5 1019.4 1019.1 0.0
23/11:30am 22.1 22.3 15.7 67 3.8 WSW 9 13 5 7 1019.6 1019.3 0.0
23/11:00am 22.1 23.1 16.4 70 3.5 WSW 6 9 3 5 1019.6 1019.3 0.0
23/10:30am 21.6 22.2 15.9 70 3.4 SSW 7 11 4 6 1019.6 1019.3 0.0
23/10:00am 21.3 21.5 15.8 71 3.3 SW 9 13 5 7 1019.4 1019.1 0.0
23/09:30am 21.4 22.0 16.8 75 2.8 SSW 9 13 5 7 1019.1 1018.8 0.0
23/09:00am 20.9 21.8 16.5 76 2.7 SSW 7 11 4 6 1018.9 1018.6 13.8
23/08:30am 20.3 20.2 15.9 76 2.6 SSW 11 15 6 8 1018.8 1018.5 13.8
23/08:00am 20.1 20.0 15.9 77 2.5 SW 11 15 6 8 1018.4 1018.1 13.8
23/07:30am 20.0 20.2 15.8 77 2.5 SW 9 13 5 7 1018.3 1018.0 13.8
23/07:00am 19.9 20.2 16.0 78 2.3 SW 9 13 5 7 1017.9 1017.6 13.8
23/06:30am 19.8 20.2 16.3 80 2.1 SW 9 11 5 6 1017.7 1017.4 13.8
23/06:00am 19.9 20.7 16.3 80 2.2 SW 7 9 4 5 1017.4 1017.1 13.8
23/05:30am 20.1 20.4 16.1 78 2.4 SSW 9 13 5 7 1017.1 1016.8 13.8
23/05:00am 20.1 20.7 16.9 82 1.9 SW 9 11 5 6 1016.8 1016.5 13.8
23/04:30am 19.9 21.6 17.1 84 1.7 SSW 4 9 2 5 1016.8 1016.5 13.8
23/04:00am 20.0 21.1 17.0 83 1.8 SSW 7 9 4 5 1016.9 1016.6 13.8
23/03:30am 20.2 21.5 17.6 85 1.6 SSW 7 13 4 7 1016.8 1016.5 13.8
23/03:00am 20.1 21.9 18.4 90 1.1 SW 6 9 3 5 1016.8 1016.5 13.8
23/02:30am 20.2 21.7 18.1 88 1.3 S 7 13 4 7 1017.0 1016.7 13.8
23/02:00am 20.3 22.8 19.0 92 0.8 SSW 4 7 2 4 1017.0 1016.7 13.8
23/01:30am 20.4 22.4 18.7 90 1.1 SSW 6 7 3 4 1017.1 1016.8 13.8
23/01:00am 20.4 22.5 18.9 91 0.9 S 6 7 3 4 1017.0 1016.7 13.8
23/12:30am 20.5 22.3 18.8 90 1.1 S 7 11 4 6 1017.4 1017.1 13.8
23/12:00am 20.0 23.6 19.8 99 0.1 CALM 0 0 0 0 1017.1 1016.8 13.8
 
Date/Time
EDT
Temp
°C
App
Temp
°C
Dew
Point
°C
Rel
Hum
%
Delta-T
°C
Wind Press
QNH
hPa
Press
MSL
hPa
Rain since
9am
mm
Dir  Spd
km/h
Gust
km/h
Spd
kts
Gust
kts
22/11:30pm 19.7 23.2 19.5 99 0.1 CALM 0 0 0 0 1017.0 1016.7 13.8
22/11:00pm 20.0 23.6 19.8 99 0.1 CALM 0 0 0 0 1016.9 1016.6 13.8
22/10:30pm 20.0 23.6 19.8 99 0.1 CALM 0 0 0 0 1016.8 1016.5 13.8
22/10:00pm 19.8 22.2 19.6 99 0.1 SW 6 9 3 5 1016.3 1016.0 13.8
22/09:30pm 19.8 22.9 19.6 99 0.1 WSW 2 7 1 4 1015.9 1015.6 13.8
22/09:00pm 19.9 23.5 19.7 99 0.1 CALM 0 6 0 3 1015.5 1015.2 13.8
22/08:30pm 20.2 22.2 20.0 99 0.1 S 9 11 5 6 1014.8 1014.6 13.8
22/08:00pm 20.6 23.2 20.4 99 0.1 SW 7 9 4 5 1014.6 1014.4 13.8
22/07:30pm 20.5 24.3 20.2 98 0.2 CALM 0 7 0 4 1013.8 1013.6 13.8
22/07:00pm 20.7 24.3 19.7 94 0.6 CALM 0 0 0 0 1013.7 1013.5 13.8
22/06:30pm 20.8 23.4 20.0 95 0.5 NW 6 9 3 5 1013.3 1013.1 13.8
22/06:00pm 20.8 24.2 20.1 96 0.4 SSW 2 7 1 4 1013.1 1012.9 13.8
22/05:30pm 20.7 23.3 20.5 99 0.1 S 7 11 4 6 1012.8 1012.6 13.8
22/05:00pm 19.8 22.0 19.6 99 0.1 E 7 11 4 6 1012.9 1012.7 13.4
22/04:49pm 19.7 20.7 19.5 99 0.1 ESE 13 17 7 9 1013.1 1012.9 13.0
22/04:47pm 19.7 20.7 19.5 99 0.1 ESE 13 17 7 9 1013.2 1013.0 13.0
22/04:30pm 19.7 19.3 19.0 96 0.4 S 19 35 10 19 1014.0 1013.8 11.6
22/04:27pm 19.9 18.2 18.9 94 0.6 SSW 26 50 14 27 1014.2 1014.0 9.2
22/04:18pm 20.9 18.3 17.9 83 1.9 WSW 28 52 15 28 1013.7 1013.5 1.4
22/04:14pm 23.6 23.1 17.8 70 3.6 W 17 52 9 28 1013.1 1012.9 0.0
22/04:00pm 25.4 26.4 17.8 62 4.8 N 9 17 5 9 1011.5 1011.3 0.0
22/03:30pm 25.0 24.0 18.0 65 4.4 NW 20 32 11 17 1010.5 1010.3 0.0
22/03:27pm 25.0 24.1 18.2 66 4.3 NW 20 32 11 17 1010.3 1010.1 0.0
22/03:08pm 28.5 30.8 21.3 65 4.8 N 11 20 6 11 1010.3 1010.1 0.0
22/03:00pm 29.3 31.8 21.0 61 5.5 NNE 9 13 5 7 1010.4 1010.2 0.0
22/02:30pm 30.8 34.3 20.4 54 6.9 ENE 2 15 1 8 1010.5 1010.3 0.0
22/02:00pm 30.7 33.9 20.6 54 6.7 SW 4 11 2 6 1010.9 1010.7 0.0
22/01:30pm 30.4 33.3 20.6 55 6.5 NW 6 11 3 6 1011.4 1011.2 0.0
22/01:00pm 29.4 32.6 20.5 58 5.9 E 4 9 2 5 1011.6 1011.4 0.0
22/12:30pm 28.8 32.4 22.1 67 4.5 E 6 9 3 5 1011.9 1011.7 0.0
22/12:00pm 27.8 31.1 21.8 70 4.0 ENE 7 13 4 7 1012.1 1011.9 0.0
22/11:30am 26.0 30.2 22.5 81 2.4 SSE 4 7 2 4 1012.6 1012.4 0.0
22/11:00am 25.1 28.7 22.4 85 1.8 SE 7 11 4 6 1012.9 1012.7 0.0
22/10:30am 23.9 27.6 22.2 90 1.1 ESE 6 7 3 4 1012.9 1012.7 0.0
22/10:00am 23.0 27.7 22.0 94 0.7 CALM 0 0 0 0 1013.0 1012.8 0.0
22/09:30am 22.7 26.9 22.4 98 0.2 SE 4 7 2 4 1012.9 1012.7 0.0
22/09:00am 22.2 27.0 22.2 100 0.0 CALM 0 0 0 0 1012.7 1012.5 27.6
22/08:30am 21.7 26.3 21.7 100 0.0 CALM 0 0 0 0 1012.5 1012.3 27.6
22/08:00am 21.3 25.7 21.3 100 0.0 CALM 0 0 0 0 1012.4 1012.2 27.6
22/07:30am 20.9 25.1 20.9 100 0.0 CALM 0 6 0 3 1012.0 1011.8 27.6
22/07:07am 20.7 23.0 20.7 100 0.0 N 9 11 5 6 1011.7 1011.5 27.6
22/07:00am 20.7 22.7 20.7 100 0.0 N 11 13 6 7 1011.6 1011.4 27.6
22/06:47am 20.5 23.3 20.5 100 0.0 N 6 7 3 4 1011.3 1011.1 27.6
22/06:38am 20.7 24.0 20.7 100 0.0 NNE 4 6 2 3 1011.2 1011.0 27.6
22/06:30am 20.6 23.5 20.6 100 0.0 NE 6 7 3 4 1011.0 1010.8 27.6
22/06:00am 20.8 24.1 20.8 100 0.0 ENE 4 6 2 3 1010.5 1010.3 27.6
22/05:31am 20.7 23.4 20.7 100 0.0 ESE 7 9 4 5 1010.6 1010.4 27.6
22/05:30am 20.8 23.8 20.8 100 0.0 ESE 6 9 3 5 1010.6 1010.4 27.6
22/05:00am 20.8 23.8 20.8 100 0.0 SSE 6 9 3 5 1010.5 1010.3 27.6
22/04:44am 20.8 23.8 20.8 100 0.0 S 6 7 3 4 1010.8 1010.6 27.6
22/04:30am 20.8 24.5 20.8 100 0.0 SW 2 7 1 4 1010.8 1010.6 27.6
22/04:23am 20.9 24.7 20.9 100 0.0 SW 2 7 1 4 1010.8 1010.6 27.6
22/04:00am 21.1 24.2 21.1 100 0.0 S 6 9 3 5 1010.7 1010.5 27.6
22/03:30am 21.2 25.5 21.2 100 0.0 CALM 0 0 0 0 1011.2 1011.0 27.6
22/03:00am 21.1 25.0 21.1 100 0.0 SSW 2 7 1 4 1011.3 1011.1 27.6
22/02:49am 21.1 24.0 21.1 100 0.0 S 7 9 4 5 1011.3 1011.1 27.6
22/02:30am 21.1 24.0 21.1 100 0.0 SSW 7 11 4 6 1011.7 1011.5 27.4
22/02:00am 20.9 25.0 20.7 99 0.1 CALM 0 0 0 0 1012.0 1011.8 27.4
22/01:30am 21.4 25.7 21.2 99 0.1 CALM 0 0 0 0 1012.3 1012.1 27.4
22/01:00am 21.4 25.7 21.2 99 0.1 CALM 0 0 0 0 1012.7 1012.5 27.4
22/12:30am 21.6 26.0 21.4 99 0.1 CALM 0 0 0 0 1012.6 1012.4 27.4
22/12:16am 21.7 26.2 21.5 99 0.1 CALM 0 0 0 0 1013.0 1012.8 27.4
22/12:11am 21.9 26.5 21.7 99 0.1 CALM 0 0 0 0 1013.1 1012.9 27.4
22/12:00am 21.8 26.3 21.6 99 0.1 CALM 0 0 0 0 1013.0 1012.8 27.4
 
Date/Time
EDT
Temp
°C
App
Temp
°C
Dew
Point
°C
Rel
Hum
%
Delta-T
°C
Wind Press
QNH
hPa
Press
MSL
hPa
Rain since
9am
mm
Dir  Spd
km/h
Gust
km/h
Spd
kts
Gust
kts
21/11:46pm 21.9 26.5 21.7 99 0.1 CALM 0 4 0 2 1012.9 1012.7 27.4
21/11:30pm 21.9 25.3 21.7 99 0.1 ESE 6 9 3 5 1012.8 1012.6 27.4
21/11:25pm 21.9 26.1 21.7 99 0.1 WNW 2 9 1 5 1012.9 1012.7 27.4
21/11:15pm 22.0 26.6 21.8 99 0.1 CALM 0 0 0 0 1013.2 1013.0 27.4
21/11:00pm 22.1 26.8 21.9 99 0.1 CALM 0 0 0 0 1013.4 1013.2 27.4
21/10:58pm 22.1 26.8 21.9 99 0.1 CALM 0 0 0 0 1013.5 1013.3 27.4
21/10:47pm 22.1 25.6 21.9 99 0.1 NW 6 9 3 5 1013.8 1013.6 26.6
21/10:30pm 22.2 25.8 22.0 99 0.1 NW 6 9 3 5 1013.6 1013.4 26.6
21/10:00pm 22.2 26.9 22.0 99 0.1 CALM 0 0 0 0 1013.5 1013.3 26.6
21/09:40pm 22.2 27.0 22.2 100 0.0 CALM 0 0 0 0 1013.7 1013.5 26.6
21/09:30pm 22.3 27.2 22.3 100 0.0 CALM 0 0 0 0 1013.8 1013.6 26.6
21/09:25pm 22.3 27.1 22.1 99 0.1 CALM 0 0 0 0 1013.8 1013.6 26.6
21/09:18pm 22.2 26.9 22.0 99 0.1 CALM 0 0 0 0 1013.9 1013.7 26.6
21/09:00pm 22.2 26.9 22.0 99 0.1 CALM 0 0 0 0 1013.9 1013.7 26.6
21/08:30pm 22.1 26.8 21.9 99 0.1 CALM 0 0 0 0 1013.0 1012.8 26.6
21/08:00pm 22.2 26.5 22.0 99 0.1 N 2 9 1 5 1013.0 1012.8 26.6
21/07:30pm 22.5 26.1 22.3 99 0.1 NE 7 9 4 5 1012.8 1012.6 26.6
21/07:04pm 22.6 25.8 22.4 99 0.1 NE 9 13 5 7 1012.7 1012.5 26.4
21/07:00pm 22.6 25.8 22.4 99 0.1 NNE 9 9 5 5 1013.1 1012.9 26.4
21/06:47pm 22.7 24.8 22.5 99 0.1 NE 15 19 8 10 1013.2 1013.0 26.0
21/06:30pm 22.8 27.8 22.5 98 0.2 CALM 0 7 0 4 1013.0 1012.8 25.2
21/06:00pm 22.9 26.8 22.6 98 0.2 SSW 6 6 3 3 1013.0 1012.8 24.2
21/05:30pm 22.8 26.5 22.5 98 0.2 WSW 7 15 4 8 1012.8 1012.6 24.0
21/05:06pm 22.8 26.7 22.6 99 0.1 ESE 6 9 3 5 1012.7 1012.5 24.0
21/05:05pm 22.8 26.7 22.6 99 0.1 ESE 6 9 3 5 1012.7 1012.5 24.0
21/05:00pm 22.7 26.6 22.5 99 0.1 ENE 6 9 3 5 1012.8 1012.6 24.0
21/04:55pm 22.7 25.9 22.4 98 0.2 ENE 9 13 5 7 1012.9 1012.7 24.0
21/04:37pm 22.6 27.3 21.9 96 0.5 CALM 0 0 0 0 1013.2 1013.0 18.8
21/04:36pm 22.6 27.3 21.9 96 0.5 CALM 0 4 0 2 1013.2 1013.0 18.6
21/04:35pm 22.7 27.4 22.0 96 0.5 CALM 0 6 0 3 1013.1 1012.9 18.4
21/04:30pm 22.6 26.5 21.9 96 0.5 N 4 13 2 7 1013.2 1013.0 17.8
21/04:08pm 23.4 25.2 22.6 95 0.5 NW 17 20 9 11 1013.7 1013.5 9.8
21/04:00pm 23.7 25.4 22.3 92 0.9 W 17 22 9 12 1013.5 1013.3 3.6
21/03:56pm 24.0 26.3 22.1 89 1.3 W 13 22 7 12 1013.1 1012.9 2.0
21/03:30pm 25.3 29.7 21.4 79 2.6 CALM 0 4 0 2 1012.5 1012.3 0.0
21/03:00pm 25.7 29.9 20.9 75 3.2 CALM 0 4 0 2 1013.0 1012.8 0.0
21/02:30pm 26.0 29.0 20.8 73 3.4 NNE 6 9 3 5 1013.1 1012.9 0.0
21/02:00pm 26.0 27.9 20.6 72 3.5 N 11 13 6 7 1013.5 1013.3 0.0
21/01:30pm 25.9 28.1 20.5 72 3.5 NNE 9 13 5 7 1013.7 1013.5 0.0
21/01:00pm 26.1 29.4 20.7 72 3.6 E 4 7 2 4 1014.2 1014.0 0.0
21/12:35pm 26.1 29.0 20.7 72 3.6 ENE 6 11 3 6 1014.4 1014.2 0.0
21/12:30pm 26.2 30.1 21.2 74 3.3 NE 2 11 1 6 1014.5 1014.3 0.0
21/12:00pm 25.9 30.0 20.7 73 3.4 CALM 0 0 0 0 1015.0 1014.8 0.0
21/11:30am 26.5 30.3 21.7 75 3.2 E 4 9 2 5 1015.2 1015.0 0.0
21/11:00am 24.4 28.5 20.7 80 2.4 CALM 0 6 0 3 1015.6 1015.3 0.0

Other Formats:

Comma delimited format used in spreadsheet applications
http://www.bom.gov.au/fwo/IDN60801/IDN60801.94755.axf

JavaScript Object Notation format (JSON) in row-major order
http://www.bom.gov.au/fwo/IDN60801/IDN60801.94755.json